Detailed System and Site Information

System Data Health
Measure Timestamp Ago Health
Web Server Live 07:42:59, 25th July 2014 0 s health
Last live-data upload from local system (nw3) 07:42:57, 25th July 2014 2 s health
Last upload of secondary data 07:00:27, 25th July 2014 43 mins health
Latest Webcam upload 07:42:08, 25th July 2014 51 s health
Last upload of 24hr data log 07:39:08, 25th July 2014 4 mins health
Last full data process 07:40:02, 25th July 2014 3 mins health
Last data downtime (>15 mins) 17:01:02, 2nd April 2014 114 days
Local System and Site Information
Measure Value
WD Version & Build # 10.37R - 40
WD Start Time 08:30 23/07/14
WD Data Count 57875
WD Memory Use 76,768 K
--- ---
Windows Uptime 1 Days 22 Hours 31 Minutes 9 Seconds
Free System Memory 2731 MB (Max: 4GB)
--- ---
Station Altitude 57 m (187 ft)
Station Latitude 51.556
Station Longitude -0.154
Machine Room Conditions
Measure Value
Temperature 24.5 °C
Temperature Trend +0.2 °C /hr
Relative Humidity 46%
Dew Point 12.1 °C
--- ---
Tmin Today 23.6 °C at 00:00
Tmax Today 24.5 °C at 06:24
Hmin Today 44% at 00:34
Hmax Today 46% at 04:57
Tmin Yesterday 21.7 °C at 08:48
Tmax Yesterday 26.5 °C at 14:47

Site owner and administrator: Ben Lee-Rodgers (2010 - present)

Last 10hrs Temp/Hum for Secondary Sensor and Indoors

Extra Sensors/Indoor

Other

Raw METAR from EGLL (Heathrow)

EGLL 250620Z 36004KT 330V070 9000 FEW007 17/15 Q1017
Decode Instructions
Source

WD Screenshot

not available